Nearby METAR Reports

 

LBSF - Sofia (observato, Bulgaria
Distance from station: ENE 64km
Updated: 14/12/2017 22:00
Clear
Clear
 Wind from W
Wind: W 6 km/h
Temperature: 6°C
Dew Point: 2°C
Humidity: 76%
Barometer: 1013 hPa
Summary: Clear
Visibility: greater than 10 km
2017/12/14 20:00 LBSF 142000Z 28003KT CAVOK 06/02 Q1013 NOSIG
LWSK - Skopje/Petrovac, Macedonia
Distance from station: WSW 99km
Updated: 14/12/2017 22:30
Fog, Overcast
Fog, Overcast
 Wind from calm
Wind: Calm
Temperature: 2°C
Dew Point: 2°C
Humidity: 100%
Barometer: 1015 hPa
Summary: Fog
Clouds: Overcast
Visibility: 0 km
Cloud details: Overcast 30 m
2017/12/14 20:30 LWSK 142030Z 00000KT 0100 R34/0225N FG VV001 02/02 Q1015 NOSIG
 
LYNI - Nis, Yugoslavia
Distance from station: NNW 127km
Updated: 14/12/2017 22:30
Partly Cloudy
Partly Cloudy
 Wind from SE
Wind: SE 7 km/h
Temperature: 8°C
Wind Chill: 7°C
Dew Point: 4°C
Humidity: 76%
Barometer: 1012 hPa
Clouds: Partly Cloudy
Visibility: 10 km
Cloud details: Partly Cloudy 1219 m
2017/12/14 20:30 LYNI 142030Z 13004KT 100V160 9999 SCT040 08/04 Q1012
BKPR - Prishtina, Yugoslavia
Distance from station: W 141km
Updated: 14/12/2017 22:30
Mostly Cloudy
Mostly Cloudy
 Wind from SSW
Wind: SSW 13 km/h
Temperature: 9°C
Wind Chill: 7°C
Dew Point: 1°C
Humidity: 58%
Barometer: 1014 hPa
Clouds: Mostly Cloudy
Visibility: 10 km
Cloud details: Mostly Cloudy 2438 m
2017/12/14 20:30 BKPR 142030Z 20007KT 140V230 9999 BKN080 09/01 Q1014 NOSIG RMK 17290095